Time;durP1;ratioP1;P1;durP2;ratioP2;P2;SDS_P1;SDS_P2;PMS_P1;PMS_P2;Temp;Humidity;BMP_temperature;BMP_pressure;BME280_temperature;BME280_humidity;BME280_pressure;Samples;Min_cycle;Max_cycle;Signal;HPM_P1;HPM_P2
2023/05/05 00:03:42;;;;;;;5.63;1.90;;;;;;;14.62;44.68;101989.09;5013741;28;20056;-36
2023/05/05 00:06:08;;;;;;;10.80;2.30;;;;;;;14.67;44.76;101988.84;5011668;28;20026;-37
2023/05/05 00:08:33;;;;;;;7.47;2.47;;;;;;;14.73;44.67;101995.66;5012092;28;20656;-37
2023/05/05 00:10:59;;;;;;;7.43;2.40;;;;;;;14.74;44.35;101992.91;5016314;28;20026;-37
2023/05/05 00:13:24;;;;;;;7.25;2.30;;;;;;;14.71;44.77;101984.28;5009782;28;20022;-37
2023/05/05 00:15:52;;;;;;;10.82;2.45;;;;;;;14.73;44.57;101990.34;5009033;28;20087;-37
2023/05/05 00:18:18;;;;;;;9.10;2.92;;;;;;;14.75;44.68;101989.31;5006006;28;20070;-36
2023/05/05 00:20:45;;;;;;;7.43;2.40;;;;;;;14.77;44.55;101986.56;5007531;28;20160;-37
2023/05/05 00:23:11;;;;;;;9.25;2.47;;;;;;;14.78;44.44;101986.50;5010368;28;20415;-37
2023/05/05 00:25:37;;;;;;;5.60;1.90;;;;;;;14.76;44.43;101984.84;5011383;28;20025;-37
2023/05/05 00:28:02;;;;;;;3.58;1.77;;;;;;;14.67;44.46;101985.34;5015099;28;20140;-37
2023/05/05 00:30:28;;;;;;;9.77;2.08;;;;;;;14.62;44.68;101983.78;5016977;28;20034;-37
2023/05/05 00:32:54;;;;;;;10.73;2.08;;;;;;;14.61;44.77;101978.59;5007674;28;20411;-37
2023/05/05 00:35:19;;;;;;;7.55;2.90;;;;;;;14.63;44.87;101977.56;5003323;28;20503;-37
2023/05/05 00:37:45;;;;;;;8.18;2.33;;;;;;;14.64;44.84;101971.31;4978145;28;20038;-37
2023/05/05 00:40:12;;;;;;;5.43;2.17;;;;;;;14.63;44.71;101980.22;5009645;28;20037;-37
2023/05/05 00:42:43;;;;;;;6.22;2.38;;;;;;;14.64;44.82;101973.97;5008801;28;20426;-37
2023/05/05 00:45:13;;;;;;;6.40;2.35;;;;;;;14.64;44.72;101981.91;4993783;28;20033;-37
2023/05/05 00:47:41;;;;;;;7.22;2.60;;;;;;;14.67;44.79;101985.34;5010146;28;20030;-37
2023/05/05 00:50:08;;;;;;;2.88;1.52;;;;;;;14.65;44.55;101972.19;5014683;28;20407;-37
2023/05/05 00:52:37;;;;;;;7.65;2.78;;;;;;;14.66;44.80;101983.63;4997401;28;20127;-37
2023/05/05 00:55:07;;;;;;;6.40;2.00;;;;;;;14.64;44.66;101979.28;4997343;28;20038;-39
2023/05/05 00:57:34;;;;;;;5.38;1.83;;;;;;;14.64;44.66;101971.31;4998329;28;20084;-37
2023/05/05 01:00:01;;;;;;;14.25;2.58;;;;;;;14.62;44.90;101981.16;5008447;28;20037;-37
2023/05/05 01:02:26;;;;;;;5.93;3.28;;;;;;;14.65;44.72;101974.84;5008470;28;20044;-37
2023/05/05 01:04:54;;;;;;;6.28;2.00;;;;;;;14.66;44.63;101979.22;5007205;28;20042;-36
2023/05/05 01:07:43;;;;;;;5.78;1.92;;;;;;;14.63;44.54;101969.63;5009944;28;20037;-37
2023/05/05 01:10:33;;;;;;;5.57;2.60;;;;;;;14.59;44.46;101965.44;5018274;28;24209;-37
2023/05/05 01:13:44;;;;;;;7.35;2.13;;;;;;;14.59;44.43;101978.69;5017979;28;20040;-37
2023/05/05 01:16:29;;;;;;;4.68;1.80;;;;;;;14.55;44.69;101979.78;5026238;28;20022;-37
2023/05/05 01:19:07;;;;;;;10.52;2.20;;;;;;;14.53;44.60;101973.72;5038277;28;20112;-37
2023/05/05 01:21:32;;;;;;;7.75;2.35;;;;;;;14.53;44.49;101970.19;5016656;28;20026;-37
2023/05/05 01:24:39;;;;;;;9.48;2.13;;;;;;;14.58;44.65;101976.97;5011553;28;20029;-37
2023/05/05 01:27:41;;;;;;;7.80;2.72;;;;;;;14.59;44.66;101981.34;5016730;28;20047;-36
2023/05/05 01:30:37;;;;;;;3.92;1.90;;;;;;;14.63;44.67;101972.25;5026017;28;20052;-37
2023/05/05 01:33:07;;;;;;;8.23;2.47;;;;;;;14.59;44.67;101965.44;5001753;28;20487;-36
2023/05/05 01:35:40;;;;;;;5.28;2.00;;;;;;;14.54;44.70;101970.13;4996937;28;20152;-36
2023/05/05 01:38:18;;;;;;;16.77;2.47;;;;;;;14.51;44.59;101980.88;5007050;28;20076;-37
2023/05/05 01:40:48;;;;;;;5.60;2.08;;;;;;;14.48;44.60;101973.97;5015143;28;20029;-37
2023/05/05 01:43:18;;;;;;;6.07;1.80;;;;;;;14.46;44.72;101977.63;5021053;28;20415;-37
2023/05/05 01:45:45;;;;;;;5.43;2.42;;;;;;;14.43;44.65;101978.66;5007029;28;20030;-37
2023/05/05 01:48:12;;;;;;;6.93;1.88;;;;;;;14.41;44.82;101983.19;5005062;28;20037;-37
2023/05/05 01:50:40;;;;;;;4.75;1.92;;;;;;;14.46;44.68;101975.84;5013899;28;20037;-37
2023/05/05 01:53:08;;;;;;;5.57;1.70;;;;;;;14.48;44.44;101968.69;5008493;28;20029;-37
2023/05/05 01:55:35;;;;;;;7.32;2.00;;;;;;;14.46;44.61;101982.94;4995511;28;20042;-37
2023/05/05 01:58:03;;;;;;;4.72;1.85;;;;;;;14.43;44.28;101972.53;5009101;28;20026;-37
2023/05/05 02:00:30;;;;;;;9.18;2.63;;;;;;;14.42;44.15;101970.81;4978880;28;22273;-37
2023/05/05 02:02:58;;;;;;;5.82;2.03;;;;;;;14.41;44.21;101971.75;5014189;28;20021;-37
2023/05/05 02:05:25;;;;;;;6.65;2.00;;;;;;;14.39;43.90;101966.53;4996672;28;20026;-37
2023/05/05 02:07:55;;;;;;;7.10;2.05;;;;;;;14.39;43.66;101968.31;5012728;28;20123;-37
2023/05/05 02:10:21;;;;;;;4.95;2.03;;;;;;;14.36;43.54;101966.72;4979532;28;20523;-38
2023/05/05 02:12:47;;;;;;;5.22;2.25;;;;;;;14.33;43.39;101967.72;5002927;28;20037;-38
2023/05/05 02:15:15;;;;;;;4.35;2.00;;;;;;;14.32;43.34;101973.94;5014728;28;20022;-37
2023/05/05 02:17:45;;;;;;;8.40;2.50;;;;;;;14.29;43.12;101971.44;5013659;28;20472;-37
2023/05/05 02:20:12;;;;;;;4.05;1.73;;;;;;;14.28;43.33;101971.53;5000487;28;20043;-37
2023/05/05 02:22:39;;;;;;;4.53;1.83;;;;;;;14.25;43.10;101963.75;4982494;28;20823;-37
2023/05/05 02:25:05;;;;;;;5.80;1.98;;;;;;;14.27;43.06;101973.34;5000164;28;20037;-38
2023/05/05 02:27:36;;;;;;;7.30;1.90;;;;;;;14.30;42.72;101970.53;5008046;28;20469;-37
2023/05/05 02:30:12;;;;;;;7.68;1.92;;;;;;;14.30;42.37;101967.88;4986933;28;20083;-37
2023/05/05 02:32:53;;;;;;;5.55;2.08;;;;;;;14.29;42.27;101963.50;4988905;28;20099;-36
2023/05/05 02:35:27;;;;;;;4.40;1.92;;;;;;;14.27;42.16;101967.19;4999010;28;20064;-37
2023/05/05 02:38:01;;;;;;;5.40;1.75;;;;;;;14.26;42.32;101971.66;4989974;28;20034;-42
2023/05/05 02:40:29;;;;;;;3.88;1.63;;;;;;;14.26;42.35;101969.00;5003374;28;20089;-37
2023/05/05 02:42:57;;;;;;;4.82;1.90;;;;;;;14.26;42.30;101962.84;4995495;28;20034;-37
2023/05/05 02:45:25;;;;;;;6.70;2.00;;;;;;;14.21;42.07;101960.44;5011827;28;20096;-37
2023/05/05 02:47:51;;;;;;;5.03;1.90;;;;;;;14.17;42.21;101966.81;5007858;28;20571;-37
2023/05/05 02:50:17;;;;;;;4.60;1.65;;;;;;;14.19;41.98;101970.25;5011361;28;20029;-38
2023/05/05 02:52:43;;;;;;;3.30;1.55;;;;;;;14.21;41.70;101959.59;5013523;28;20764;-36
2023/05/05 02:55:09;;;;;;;8.32;1.92;;;;;;;14.22;41.67;101971.91;5010430;28;20931;-36
2023/05/05 02:58:07;;;;;;;3.60;1.70;;;;;;;14.19;41.78;101970.25;5019154;28;20113;-37
2023/05/05 03:00:39;;;;;;;7.10;1.88;;;;;;;14.17;41.52;101969.47;5020119;28;20034;-36
2023/05/05 03:03:16;;;;;;;;;;;;;;;14.15;41.05;101972.22;5018992;28;20029;-37
2023/05/05 03:05:48;;;;;;;5.40;2.33;;;;;;;14.16;41.76;101965.13;5019447;28;19927;-37
2023/05/05 03:08:25;;;;;;;4.70;1.60;;;;;;;14.16;41.24;101959.81;5029873;28;20018;-37
2023/05/05 03:11:22;;;;;;;6.75;2.25;;;;;;;14.08;40.71;101964.69;5000809;28;20496;-37
2023/05/05 03:13:53;;;;;;;7.68;2.20;;;;;;;14.09;41.02;101979.63;5030309;28;20088;-37
2023/05/05 03:16:21;;;;;;;4.15;1.65;;;;;;;14.10;41.29;101974.22;4996861;28;20151;-37
2023/05/05 03:18:49;;;;;;;2.95;1.90;;;;;;;14.12;41.14;101979.47;5000282;28;20133;-36
2023/05/05 03:21:15;;;;;;;4.68;1.55;;;;;;;14.11;40.95;101977.75;5009023;28;20033;-37
2023/05/05 03:23:41;;;;;;;13.95;2.22;;;;;;;14.12;40.88;101979.47;5009744;28;20072;-36
2023/05/05 03:26:06;;;;;;;6.40;2.53;;;;;;;14.08;40.81;101978.75;5017731;28;20038;-36
2023/05/05 03:28:32;;;;;;;9.73;1.92;;;;;;;14.07;40.73;101971.75;5002785;28;20029;-36
2023/05/05 03:30:57;;;;;;;5.88;1.98;;;;;;;14.08;40.69;101976.09;5012373;28;20025;-37
2023/05/05 03:33:23;;;;;;;7.43;1.75;;;;;;;14.01;40.85;101983.50;5015134;28;20514;-37
2023/05/05 03:35:48;;;;;;;5.60;2.10;;;;;;;14.04;40.68;101982.53;4990485;28;20045;-37
2023/05/05 03:38:14;;;;;;;5.45;2.20;;;;;;;14.01;40.75;101987.97;4983068;28;20053;-37
2023/05/05 03:40:39;;;;;;;6.80;2.60;;;;;;;14.00;40.45;101984.44;5010699;28;20025;-37
2023/05/05 03:43:05;;;;;;;3.78;2.00;;;;;;;14.01;40.59;101980.03;4997233;28;20042;-37
2023/05/05 03:45:30;;;;;;;5.78;1.50;;;;;;;14.02;40.46;101979.94;5018734;28;20029;-36
2023/05/05 03:47:56;;;;;;;6.13;1.95;;;;;;;14.01;40.31;101980.03;4991426;28;20037;-37
2023/05/05 03:50:23;;;;;;;6.72;2.00;;;;;;;14.05;40.30;101981.59;5006038;28;20056;-37
2023/05/05 03:52:48;;;;;;;9.98;2.88;;;;;;;14.07;40.22;101982.34;5011388;28;20037;-37
2023/05/05 03:55:16;;;;;;;6.25;2.38;;;;;;;14.08;40.17;101980.56;5001162;28;20033;-37
2023/05/05 03:57:45;;;;;;;5.80;1.85;;;;;;;14.09;40.03;101972.53;5015834;28;20040;-38
2023/05/05 04:00:11;;;;;;;6.68;2.53;;;;;;;14.06;40.28;101977.13;4990553;28;20045;-37
2023/05/05 04:02:36;;;;;;;3.95;1.85;;;;;;;14.03;40.41;101965.78;5008356;28;20026;-37
2023/05/05 04:05:02;;;;;;;7.13;1.80;;;;;;;13.96;40.73;101980.28;4993700;28;20034;-38
2023/05/05 04:07:28;;;;;;;5.90;2.35;;;;;;;13.96;40.58;101980.28;4985502;28;20063;-36
2023/05/05 04:09:53;;;;;;;4.05;1.90;;;;;;;13.96;40.79;101982.91;4998277;28;20057;-37
2023/05/05 04:12:19;;;;;;;5.38;2.13;;;;;;;13.97;40.84;101984.63;4996778;28;20037;-36
2023/05/05 04:14:44;;;;;;;10.23;2.08;;;;;;;14.06;40.74;101982.44;4992356;28;20034;-37
2023/05/05 04:17:10;;;;;;;5.80;2.17;;;;;;;14.10;41.09;101976.03;4973610;28;20037;-37
2023/05/05 04:19:35;;;;;;;9.25;3.17;;;;;;;14.10;40.77;101981.34;4999062;28;20057;-37
2023/05/05 04:22:01;;;;;;;10.73;2.92;;;;;;;14.12;40.86;101982.97;5013078;28;20423;-48
2023/05/05 04:24:26;;;;;;;10.50;2.47;;;;;;;14.15;40.99;101981.94;5013411;28;20033;-37
2023/05/05 04:26:52;;;;;;;6.82;2.47;;;;;;;14.17;41.17;101983.56;4995855;28;20030;-37
2023/05/05 04:29:18;;;;;;;8.93;2.40;;;;;;;14.18;41.14;101989.72;5011890;28;20476;-37
2023/05/05 04:31:44;;;;;;;7.93;2.17;;;;;;;14.18;41.22;101992.34;4989463;28;20427;-37
2023/05/05 04:34:10;;;;;;;7.00;1.92;;;;;;;14.18;41.03;102000.31;5008842;28;20435;-37
2023/05/05 04:36:36;;;;;;;6.45;2.13;;;;;;;14.17;41.53;102002.09;5011583;28;20029;-36
2023/05/05 04:39:01;;;;;;;7.28;2.10;;;;;;;14.23;41.50;101997.41;4997839;28;20041;-37
2023/05/05 04:41:27;;;;;;;4.05;1.73;;;;;;;14.26;41.44;101994.59;4996291;28;20485;-37
2023/05/05 04:43:54;;;;;;;5.80;2.03;;;;;;;14.27;41.66;101999.84;5001501;28;20032;-37
2023/05/05 04:46:20;;;;;;;8.43;2.53;;;;;;;14.28;41.73;102001.53;4992501;28;20030;-37
2023/05/05 04:48:46;;;;;;;23.42;3.88;;;;;;;14.34;41.86;102005.66;4998513;28;20152;-37
2023/05/05 04:51:12;;;;;;;7.38;2.85;;;;;;;14.36;41.85;102008.19;4984055;28;20053;-38
2023/05/05 04:53:38;;;;;;;7.47;2.90;;;;;;;14.40;41.90;102009.75;5012062;28;20057;-37
2023/05/05 04:56:03;;;;;;;8.27;2.72;;;;;;;14.41;42.00;102008.81;4999419;28;20069;-37
2023/05/05 04:58:31;;;;;;;4.88;2.15;;;;;;;14.43;41.98;102006.94;5002474;28;20483;-37
2023/05/05 05:00:58;;;;;;;7.53;2.67;;;;;;;14.37;42.29;102007.28;5009701;28;20046;-37
2023/05/05 05:03:23;;;;;;;16.10;6.82;;;;;;;14.36;42.39;102013.50;5005063;28;20091;-35
2023/05/05 05:05:49;;;;;;;10.38;2.75;;;;;;;14.33;42.55;102012.72;5007094;28;20033;-37
2023/05/05 05:08:16;;;;;;;7.10;1.63;;;;;;;14.37;42.47;102015.22;5016453;28;20037;-37
2023/05/05 05:10:42;;;;;;;6.90;2.63;;;;;;;14.38;42.47;102017.75;5012873;28;20061;-37
2023/05/05 05:13:10;;;;;;;10.25;2.40;;;;;;;14.40;42.60;102015.06;5010620;28;20040;-37
2023/05/05 05:15:38;;;;;;;6.90;2.17;;;;;;;14.43;42.67;102020.19;5027439;28;20041;-36
2023/05/05 05:18:04;;;;;;;6.65;1.52;;;;;;;14.51;42.60;102015.31;4999195;28;20034;-36
2023/05/05 05:20:30;;;;;;;6.78;2.25;;;;;;;14.58;42.72;102014.06;5010596;28;20021;-36
2023/05/05 05:23:00;;;;;;;11.38;2.78;;;;;;;14.58;42.67;102024.66;5009798;28;20025;-37
2023/05/05 05:25:27;;;;;;;5.78;2.15;;;;;;;14.58;42.76;102019.38;5019036;28;20033;-36
2023/05/05 05:27:55;;;;;;;8.60;2.70;;;;;;;14.59;42.75;102013.13;5013374;28;20037;-36
2023/05/05 05:30:21;;;;;;;6.97;2.88;;;;;;;14.61;42.90;102019.16;5010423;28;20055;-37
2023/05/05 05:32:46;;;;;;;6.40;2.40;;;;;;;14.66;42.87;102018.94;5001617;28;20030;-37
2023/05/05 05:35:12;;;;;;;15.55;4.50;;;;;;;14.69;42.85;102025.88;5011908;28;20057;-37
2023/05/05 05:37:37;;;;;;;9.40;2.70;;;;;;;14.67;43.03;102022.44;5012329;28;20042;-37
2023/05/05 05:40:06;;;;;;;5.80;2.88;;;;;;;14.72;43.07;102025.72;5009835;28;20037;-37
2023/05/05 05:42:33;;;;;;;9.65;2.25;;;;;;;14.78;43.13;102030.66;5013475;28;20112;-37
2023/05/05 05:44:59;;;;;;;9.35;2.42;;;;;;;14.80;42.99;102028.78;5013341;28;20040;-37
2023/05/05 05:47:25;;;;;;;4.32;1.63;;;;;;;14.83;42.94;102025.97;5015189;28;20037;-37
2023/05/05 05:49:53;;;;;;;8.10;2.47;;;;;;;14.86;42.93;102031.13;5015602;28;20029;-37
2023/05/05 05:52:18;;;;;;;9.23;3.22;;;;;;;14.86;42.93;102031.13;5008020;28;20045;-37
2023/05/05 05:54:44;;;;;;;10.93;2.10;;;;;;;14.85;43.07;102033.84;5020165;28;20033;-37
2023/05/05 05:57:09;;;;;;;6.70;1.88;;;;;;;14.84;43.22;102035.66;5000761;28;20038;-37
2023/05/05 05:59:37;;;;;;;21.50;9.15;;;;;;;14.88;43.26;102039.84;5019139;28;20103;-37
2023/05/05 06:02:03;;;;;;;5.68;2.85;;;;;;;14.84;43.24;102027.69;5012425;28;20056;-37
2023/05/05 06:04:30;;;;;;;4.47;1.75;;;;;;;14.89;43.14;102035.38;5009429;28;20021;-37
2023/05/05 06:06:56;;;;;;;6.97;2.22;;;;;;;14.88;43.14;102031.91;5010511;28;20064;-37
2023/05/05 06:09:21;;;;;;;4.82;2.13;;;;;;;14.90;43.17;102034.44;5020285;28;20902;-37
2023/05/05 06:11:47;;;;;;;4.18;1.80;;;;;;;14.93;43.28;102040.44;5017029;28;20040;-37
2023/05/05 06:14:12;;;;;;;5.72;2.30;;;;;;;14.96;43.24;102038.53;5015936;28;20041;-37
2023/05/05 06:16:37;;;;;;;5.15;2.15;;;;;;;14.96;43.22;102043.84;5013799;28;20052;-37
2023/05/05 06:19:08;;;;;;;12.07;1.95;;;;;;;14.93;43.44;102055.47;5012115;28;20037;-37
2023/05/05 06:21:36;;;;;;;8.27;2.10;;;;;;;14.92;43.45;102056.41;5024231;28;20083;-37
2023/05/05 06:24:01;;;;;;;8.65;2.03;;;;;;;14.97;43.49;102053.50;5013062;28;20041;-37
2023/05/05 06:26:27;;;;;;;6.13;2.00;;;;;;;14.99;43.33;102065.72;5020001;28;20037;-37
2023/05/05 06:28:52;;;;;;;6.60;2.70;;;;;;;15.06;43.43;102064.47;5034196;28;20029;-37
2023/05/05 06:31:18;;;;;;;7.60;1.92;;;;;;;15.10;43.19;102059.84;5024773;28;20041;-37
2023/05/05 06:33:43;;;;;;;5.13;2.53;;;;;;;15.11;43.19;102058.91;5024346;28;20120;-37
2023/05/05 06:36:09;;;;;;;7.78;2.63;;;;;;;15.11;43.28;102061.53;5029109;28;20040;-37
2023/05/05 06:38:34;;;;;;;9.45;2.78;;;;;;;15.15;43.04;102056.91;5007205;28;20144;-37
2023/05/05 06:41:00;;;;;;;8.00;2.65;;;;;;;15.16;43.38;102061.28;5024691;28;20391;-37
2023/05/05 06:43:27;;;;;;;6.40;3.35;;;;;;;15.19;43.37;102059.34;5025350;28;20029;-37
2023/05/05 06:45:53;;;;;;;8.60;1.88;;;;;;;15.22;43.45;102064.44;5026112;28;20380;-37
2023/05/05 06:48:21;;;;;;;8.45;2.30;;;;;;;15.23;43.50;102065.31;5018863;28;21072;-38
2023/05/05 06:50:47;;;;;;;7.20;2.50;;;;;;;15.27;43.16;102066.00;5025771;28;20093;-37
2023/05/05 06:53:12;;;;;;;8.45;2.45;;;;;;;15.33;43.76;102076.25;5022904;28;20563;-37
2023/05/05 06:55:46;;;;;;;5.70;2.65;;;;;;;15.37;43.51;102075.13;5020538;28;20044;-37
2023/05/05 06:58:12;;;;;;;7.43;1.80;;;;;;;15.38;43.72;102077.69;5025242;28;20025;-37
2023/05/05 07:00:38;;;;;;;6.35;2.33;;;;;;;15.42;43.56;102072.22;5025977;28;20530;-37
2023/05/05 07:03:04;;;;;;;7.50;2.83;;;;;;;15.41;43.61;102075.81;5019256;28;20112;-37
2023/05/05 07:05:30;;;;;;;7.55;2.17;;;;;;;15.39;43.67;102068.81;5016652;28;20184;-37
2023/05/05 07:07:56;;;;;;;11.73;2.20;;;;;;;15.39;43.67;102074.13;5016914;28;20053;-37
2023/05/05 07:10:22;;;;;;;7.90;3.08;;;;;;;15.38;43.70;102072.41;5018588;28;20041;-37
2023/05/05 07:12:48;;;;;;;9.32;2.40;;;;;;;15.42;44.07;102073.06;5024446;28;20037;-37
2023/05/05 07:15:14;;;;;;;11.93;2.25;;;;;;;15.44;43.95;102065.00;5017920;28;20093;-38
2023/05/05 07:17:39;;;;;;;13.93;5.53;;;;;;;15.45;43.88;102064.06;5023894;28;20039;-37
2023/05/05 07:20:08;;;;;;;7.53;2.45;;;;;;;15.45;44.11;102066.72;5012160;28;20039;-37
2023/05/05 07:22:33;;;;;;;6.00;2.65;;;;;;;15.42;44.13;102054.50;5019217;28;20036;-37
2023/05/05 07:24:59;;;;;;;5.63;2.30;;;;;;;15.43;44.14;102063.34;5019426;28;20033;-37
2023/05/05 07:27:25;;;;;;;7.07;2.05;;;;;;;15.48;44.18;102062.13;5019705;28;20878;-37
2023/05/05 07:29:50;;;;;;;10.48;3.45;;;;;;;15.51;44.18;102063.72;5020559;28;20026;-37
2023/05/05 07:32:18;;;;;;;6.22;2.10;;;;;;;15.53;44.00;102059.19;5018358;28;20033;-39
2023/05/05 07:34:43;;;;;;;10.63;2.95;;;;;;;15.58;44.06;102061.56;5010761;28;20022;-37
2023/05/05 07:37:09;;;;;;;5.75;2.33;;;;;;;15.63;44.15;102059.53;5010706;28;20033;-37
2023/05/05 07:39:35;;;;;;;13.23;5.57;;;;;;;15.66;44.35;102059.31;5017289;28;20089;-37
2023/05/05 07:42:03;;;;;;;7.45;2.53;;;;;;;15.67;44.25;102061.03;5012469;28;20049;-37
2023/05/05 07:44:29;;;;;;;6.13;2.35;;;;;;;15.67;44.24;102059.25;5028213;28;20083;-37
2023/05/05 07:46:57;;;;;;;8.50;2.22;;;;;;;15.69;44.27;102059.16;5022525;28;20017;-37
2023/05/05 07:49:22;;;;;;;4.53;1.75;;;;;;;15.71;44.45;102051.94;5018492;28;20041;-37
2023/05/05 07:51:49;;;;;;;7.15;2.10;;;;;;;15.72;44.66;102056.31;5021470;28;20030;-37
2023/05/05 07:54:15;;;;;;;10.30;2.35;;;;;;;15.75;44.69;102045.53;5026858;28;20133;-37
2023/05/05 07:56:40;;;;;;;6.70;2.40;;;;;;;15.83;44.42;102045.91;5023197;28;20053;-38
2023/05/05 07:59:06;;;;;;;7.63;3.08;;;;;;;15.88;44.46;102052.78;5017897;28;20064;-37
2023/05/05 08:01:31;;;;;;;7.80;2.35;;;;;;;15.94;44.39;102055.94;5021086;28;20365;-37
2023/05/05 08:03:57;;;;;;;13.27;2.60;;;;;;;16.01;44.30;102059.06;5027215;28;20032;-37
2023/05/05 08:06:23;;;;;;;8.63;2.60;;;;;;;16.09;44.23;102066.56;5023479;28;20033;-38
2023/05/05 08:08:52;;;;;;;5.97;2.50;;;;;;;16.14;44.36;102075.97;5025778;28;20029;-37
2023/05/05 08:11:18;;;;;;;5.60;2.50;;;;;;;16.20;44.14;102076.56;5031229;28;20112;-37
2023/05/05 08:13:47;;;;;;;10.23;2.30;;;;;;;16.22;44.19;102074.66;5025457;28;20129;-37
2023/05/05 08:16:13;;;;;;;8.38;2.58;;;;;;;16.24;44.20;102076.28;5031397;28;20037;-38
2023/05/05 08:18:38;;;;;;;8.73;2.15;;;;;;;16.23;44.27;102082.53;5024612;28;20147;-37
2023/05/05 08:21:08;;;;;;;6.55;2.30;;;;;;;16.25;44.64;102080.66;5021564;28;20068;-37
2023/05/05 08:23:34;;;;;;;7.70;2.72;;;;;;;16.23;44.53;102094.97;5014539;28;20029;-37
2023/05/05 08:26:05;;;;;;;6.55;2.47;;;;;;;16.22;44.66;102090.59;5022186;28;20051;-37
2023/05/05 08:28:34;;;;;;;8.85;2.55;;;;;;;16.18;44.63;102092.59;5021819;28;20026;-37
2023/05/05 08:31:00;;;;;;;2.75;1.20;;;;;;;16.18;44.56;102086.41;5029594;28;20144;-37
2023/05/05 08:33:25;;;;;;;3.95;2.40;;;;;;;16.23;44.63;102081.69;5023972;28;20195;-37
2023/05/05 08:35:51;;;;;;;6.45;2.47;;;;;;;16.24;44.70;102080.75;5022923;28;20508;-37
2023/05/05 08:38:17;;;;;;;6.32;2.05;;;;;;;16.25;44.72;102082.47;5026222;28;20072;-37
2023/05/05 08:40:43;;;;;;;6.50;2.20;;;;;;;16.26;44.87;102084.16;5027108;28;20582;-37
2023/05/05 08:43:09;;;;;;;5.68;2.42;;;;;;;16.22;45.04;102090.59;5026804;28;20104;-37
2023/05/05 08:45:38;;;;;;;10.05;2.42;;;;;;;16.22;45.04;102082.63;5024384;28;20032;-38
2023/05/05 08:48:04;;;;;;;9.55;2.92;;;;;;;16.17;45.33;102084.69;5022835;28;20033;-37
2023/05/05 08:50:31;;;;;;;9.65;2.75;;;;;;;16.15;45.38;102088.31;5027236;28;20052;-37
2023/05/05 08:53:18;;;;;;;10.25;3.25;;;;;;;16.13;46.12;102087.53;5021646;28;20030;-37
2023/05/05 09:49:48;;;;;;;7.72;3.00;;;;;;;16.94;46.67;102069.31;5147389;27;20087;-38
2023/05/05 09:52:15;;;;;;;7.13;2.53;;;;;;;17.04;46.26;102069.63;5121010;27;20031;-37
2023/05/05 09:54:42;;;;;;;5.65;2.88;;;;;;;17.13;46.20;102063.72;5141574;27;20019;-37
2023/05/05 09:57:07;;;;;;;11.38;2.92;;;;;;;17.23;46.01;102076.44;5136409;27;20038;-37
2023/05/05 09:59:33;;;;;;;7.35;3.33;;;;;;;17.29;45.91;102079.53;5134995;27;20030;-37
2023/05/05 10:02:12;;;;;;;8.73;3.75;;;;;;;17.37;45.63;102082.53;5135032;27;20031;-37
2023/05/05 10:04:38;;;;;;;7.30;3.20;;;;;;;17.45;45.56;102076.72;5132643;27;20160;-37
2023/05/05 10:07:04;;;;;;;7.03;3.00;;;;;;;17.51;45.30;102080.78;5143020;27;20023;-37
2023/05/05 10:09:32;;;;;;;8.73;2.80;;;;;;;17.58;45.22;102078.56;5138150;27;20027;-37
2023/05/05 10:12:01;;;;;;;5.20;2.30;;;;;;;17.67;45.15;102077.97;5136176;27;20027;-37
2023/05/05 10:14:31;;;;;;;6.25;2.53;;;;;;;17.78;44.84;102085.22;5120600;27;20619;-36
2023/05/05 10:16:59;;;;;;;5.43;2.60;;;;;;;17.85;44.80;102078.53;5116605;27;20035;-37
2023/05/05 10:19:31;;;;;;;9.77;2.85;;;;;;;17.91;44.64;102086.13;5126243;27;20023;-37
2023/05/05 10:22:02;;;;;;;8.65;3.17;;;;;;;17.97;44.37;102069.72;5129797;27;20030;-37
2023/05/05 10:24:50;;;;;;;7.57;2.63;;;;;;;18.05;44.15;102073.69;5122426;27;20076;-37
2023/05/05 10:27:19;;;;;;;6.60;2.58;;;;;;;18.07;44.22;102064.63;5126024;27;20036;-37
2023/05/05 10:30:05;;;;;;;6.25;2.25;;;;;;;18.13;44.00;102063.34;5125363;27;20493;-36
2023/05/05 10:32:43;;;;;;;9.30;2.80;;;;;;;18.14;44.05;102062.41;5129537;27;20468;-37
2023/05/05 10:35:14;;;;;;;2.65;1.63;;;;;;;18.19;43.86;102051.41;5116774;27;21066;-36
2023/05/05 10:37:40;;;;;;;9.13;2.60;;;;;;;18.23;43.83;102045.75;5128269;27;20461;-36
2023/05/05 10:40:08;;;;;;;6.18;3.00;;;;;;;18.25;43.95;102038.53;5137628;27;20053;-37
2023/05/05 10:42:37;;;;;;;8.60;2.75;;;;;;;18.28;43.73;102046.31;5125448;27;20553;-37
2023/05/05 10:45:03;;;;;;;8.57;3.60;;;;;;;18.34;43.71;102044.19;5138415;27;20039;-36
2023/05/05 10:47:30;;;;;;;7.72;2.55;;;;;;;18.37;43.53;102051.97;5109842;27;20034;-37
2023/05/05 10:50:07;;;;;;;8.30;3.05;;;;;;;18.38;43.50;102043.84;5111717;27;20444;-37
2023/05/05 10:52:47;;;;;;;7.13;2.80;;;;;;;18.40;43.54;102041.94;5133487;27;20026;-37
2023/05/05 10:55:40;;;;;;;8.45;3.20;;;;;;;18.41;43.30;102042.78;5124584;27;20024;-38
2023/05/05 10:58:05;;;;;;;9.10;3.13;;;;;;;18.39;43.50;102039.34;5100239;27;20053;-37
2023/05/05 11:00:51;;;;;;;5.18;2.83;;;;;;;18.43;43.15;102040.84;5112708;27;20389;-37
2023/05/05 11:03:17;;;;;;;8.10;3.03;;;;;;;18.39;43.23;102037.56;5115108;27;20031;-37
2023/05/05 11:06:04;;;;;;;7.55;3.92;;;;;;;18.46;43.27;102035.31;5117123;27;20029;-37
2023/05/05 11:08:41;;;;;;;8.27;2.90;;;;;;;18.52;43.19;102034.03;5113106;27;20019;-36
2023/05/05 11:11:09;;;;;;;8.32;3.17;;;;;;;18.55;43.20;102036.47;5118113;27;20032;-37
2023/05/05 11:13:35;;;;;;;8.50;3.78;;;;;;;18.59;43.15;102027.31;5119146;27;20078;-37
2023/05/05 11:16:01;;;;;;;8.15;3.20;;;;;;;18.65;43.12;102026.84;5114341;27;20019;-37
2023/05/05 11:18:29;;;;;;;5.07;2.35;;;;;;;18.73;43.08;102023.63;5117747;27;20038;-37
2023/05/05 11:20:58;;;;;;;8.07;2.38;;;;;;;18.80;42.96;102016.91;5118664;27;20602;-37
2023/05/05 11:23:24;;;;;;;2.90;1.75;;;;;;;18.83;42.98;102024.66;5116470;27;20529;-36
2023/05/05 11:25:54;;;;;;;7.78;3.00;;;;;;;18.84;42.95;102025.53;5124670;27;20035;-36
2023/05/05 11:28:27;;;;;;;9.38;3.17;;;;;;;18.84;42.68;102026.38;5115809;27;20386;-37
2023/05/05 11:30:55;;;;;;;7.18;2.53;;;;;;;18.84;42.63;102026.38;5119716;27;20031;-37
2023/05/05 11:33:53;;;;;;;9.80;2.63;;;;;;;18.87;42.55;102020.81;5122601;27;20025;-36
2023/05/05 11:36:36;;;;;;;7.10;2.90;;;;;;;18.91;42.62;102026.75;5083171;27;20499;-37
2023/05/05 11:39:22;;;;;;;6.70;3.20;;;;;;;18.99;42.35;102021.78;5114306;27;20115;-37
2023/05/05 11:42:02;;;;;;;8.43;3.00;;;;;;;19.03;42.37;102007.25;5117507;27;20492;-36
2023/05/05 11:44:32;;;;;;;7.60;2.90;;;;;;;19.08;42.15;102012.25;5099516;27;20797;-36
2023/05/05 11:46:58;;;;;;;7.90;3.55;;;;;;;19.11;42.35;102009.34;5118962;27;20028;-36
2023/05/05 11:49:34;;;;;;;6.88;3.15;;;;;;;19.10;41.83;102002.31;5115677;27;20428;-36
2023/05/05 11:52:00;;;;;;;7.25;2.60;;;;;;;19.09;42.41;101997.94;5111616;27;20046;-36
2023/05/05 11:54:26;;;;;;;8.50;3.08;;;;;;;19.11;42.15;102016.50;5112134;27;20062;-36
2023/05/05 11:56:53;;;;;;;5.70;2.65;;;;;;;19.11;42.14;102003.16;5111255;27;20063;-37
2023/05/05 11:59:19;;;;;;;7.88;2.70;;;;;;;19.10;42.08;101994.31;5113324;27;21193;-38
2023/05/05 12:01:45;;;;;;;10.23;2.97;;;;;;;19.11;42.19;101995.16;5113547;27;20300;-38
2023/05/05 12:04:12;;;;;;;11.35;4.38;;;;;;;19.13;41.90;101995.88;5100960;27;20047;-38
2023/05/05 12:06:39;;;;;;;7.32;3.10;;;;;;;19.16;41.81;101998.34;5119151;27;20028;-37
2023/05/05 12:09:15;;;;;;;8.32;3.10;;;;;;;19.23;41.75;101998.72;5115760;27;20426;-37
2023/05/05 12:11:54;;;;;;;7.85;2.85;;;;;;;19.29;41.41;101998.25;5121176;27;20393;-36
2023/05/05 12:14:21;;;;;;;7.18;2.78;;;;;;;19.32;41.43;101984.69;5123036;27;20027;-36
2023/05/05 12:17:05;;;;;;;10.50;2.83;;;;;;;19.39;41.28;101985.94;5124870;27;20376;-36
2023/05/05 12:19:32;;;;;;;18.60;8.60;;;;;;;19.42;41.25;101988.38;5114996;27;20032;-36
2023/05/05 12:22:04;;;;;;;5.70;2.72;;;;;;;19.55;41.33;101982.09;5106858;27;20111;-36
2023/05/05 12:24:29;;;;;;;10.13;3.15;;;;;;;19.64;41.20;101981.38;5115344;27;20027;-36
2023/05/05 12:27:11;;;;;;;10.93;3.25;;;;;;;19.76;40.77;101983.09;5122073;27;20050;-36
2023/05/05 12:29:38;;;;;;;9.88;3.75;;;;;;;19.84;40.84;101979.84;5106765;27;20115;-37